Latest Weather Observations for Woomera

IDS60801

Issued at 5:05 pm CST Wednesday 23 April 2014 (issued every 30 minutes, with the page automatically refreshed every 10 minutes)

About weather observations | Map of weather stations | Latest weather observations for SA | Other Formats
Station Details ID: 016001 Name: WOOMERA AERODROME Lat: -31.16 Lon: 136.81 Height: 166.6 m
Data from the previous 72 hours. | See also: Recent months at Woomera
Date/Time
CST
Temp
°C
App
Temp
°C
Dew
Point
Rel
Hum
%
Delta-T
°C
Wind Press
QNH
hPa
Press
MSL
hPa
Rain
since 9 am
mm
Dir
 
Spd
km/h
Gust
km/h
Spd
kts
Gust
kts
23/05:00pm 22.1 17.2 1.9 26 9.5 SW 17 22 9 12 1014.9 - 0.0
23/04:30pm 22.8 17.6 2.2 26 9.8 SSW 19 35 10 19 1014.9 - 0.0
23/04:00pm 22.7 17.6 3.0 27 9.5 SSW 19 28 10 15 1015.0 - 0.0
23/03:30pm 22.8 17.8 3.5 28 9.4 SSW 19 26 10 14 1015.0 - 0.0
23/03:00pm 22.4 18.6 5.6 33 8.5 SW 15 24 8 13 1015.0 1014.6 0.0
23/02:30pm 22.1 16.3 4.5 31 8.7 SW 24 35 13 19 1015.2 - 0.0
23/02:00pm 22.0 17.2 4.6 32 8.6 SSW 19 30 10 16 1015.3 - 0.0
23/01:30pm 22.2 16.3 4.0 30 8.9 SSW 24 33 13 18 1015.5 - 0.0
23/01:00pm 22.4 16.7 4.7 31 8.8 SSW 24 33 13 18 1015.7 - 0.0
23/12:30pm 22.2 16.7 2.1 26 9.5 SSW 20 30 11 16 1016.3 - 0.0
23/12:00pm 21.7 16.4 2.8 28 9.0 S 20 28 11 15 1016.6 1016.2 0.0
23/11:30am 21.0 15.5 1.9 28 8.9 S 20 28 11 15 1017.1 - 0.0
23/11:00am 20.4 14.9 3.8 33 8.0 S 22 32 12 17 1017.4 - 0.0
23/10:30am 19.9 15.2 5.0 37 7.3 S 19 24 10 13 1017.8 - 0.0
23/10:00am 18.9 14.3 5.5 41 6.6 S 19 22 10 12 1018.0 - 0.0
23/09:30am 17.6 13.3 6.8 49 5.4 S 19 24 10 13 1018.2 - 0.0
23/09:00am 16.6 12.6 6.5 51 5.0 S 17 20 9 11 1018.2 1017.8 0.0
23/08:30am 15.1 10.6 7.0 58 4.0 S 20 22 11 12 1017.8 - 0.0
23/08:00am 13.8 10.1 7.8 67 3.0 SSW 17 20 9 11 1017.4 - 0.0
23/07:30am 12.4 8.8 8.4 76 2.0 SSW 17 20 9 11 1017.2 - 0.0
23/07:00am 11.8 8.2 8.2 78 1.8 S 17 20 9 11 1016.9 - 0.0
23/06:30am 11.7 8.8 8.0 78 1.8 SSW 13 17 7 9 1016.8 - 0.0
23/06:00am 12.1 10.2 7.4 73 2.3 SSW 7 11 4 6 1016.8 1016.4 0.0
23/05:30am 12.5 10.8 7.6 72 2.4 SW 6 9 3 5 1016.8 - 0.0
23/05:00am 12.5 9.9 7.8 73 2.3 SSW 11 13 6 7 1016.6 - 0.0
23/04:30am 13.1 10.1 7.6 69 2.7 S 13 17 7 9 1016.6 - 0.0
23/04:00am 13.6 9.9 7.8 68 2.9 SSE 17 20 9 11 1016.4 - 0.0
23/03:30am 13.8 9.8 8.4 70 2.7 S 19 24 10 13 1016.6 - 0.0
23/03:00am 14.0 10.1 8.7 70 2.7 S 19 26 10 14 1016.7 1016.3 0.0
23/02:30am 14.1 10.2 8.8 70 2.7 S 19 28 10 15 1016.9 - 0.0
23/02:00am 14.2 10.1 8.5 68 2.9 S 20 24 11 13 1017.1 - 0.0
23/01:30am 14.6 9.9 7.6 63 3.5 S 22 28 12 15 1017.3 - 0.0
23/01:00am 14.9 10.5 6.7 58 4.0 S 19 24 10 13 1017.5 - 0.0
23/12:30am 15.4 10.1 6.6 55 4.3 S 24 30 13 16 1017.5 - 0.0
23/12:00am 16.0 10.4 5.4 49 5.1 SSE 24 32 13 17 1017.5 1017.1 0.0
 
Date/Time
CST
Temp
°C
App
Temp
°C
Dew
Point
Rel
Hum
%
Delta-T
°C
Wind Press
QNH
hPa
Press
MSL
hPa
Rain
since 9 am
mm
Dir
 
Spd
km/h
Gust
km/h
Spd
kts
Gust
kts
22/11:30pm 16.5 11.9 6.6 52 4.9 SSE 20 28 11 15 1017.8 - 0.0
22/11:00pm 16.9 12.4 7.1 52 4.9 S 20 30 11 16 1017.7 - 0.0
22/10:30pm 17.2 12.9 7.0 51 5.1 S 19 24 10 13 1017.5 - 0.0
22/10:00pm 17.6 13.0 6.3 47 5.6 SSE 20 28 11 15 1017.4 - 0.0
22/09:30pm 18.1 13.3 5.7 44 6.1 SSE 20 28 11 15 1017.3 - 0.0
22/09:00pm 18.6 13.3 4.8 40 6.7 SSE 22 30 12 16 1017.4 1017.0 0.0
22/08:30pm 18.9 13.5 4.4 38 7.0 SSE 22 30 12 16 1017.2 - 0.0
22/08:00pm 19.5 12.7 3.2 34 7.7 SSE 28 37 15 20 1016.9 - 0.0
22/07:30pm 20.0 13.9 2.8 32 8.1 SSE 24 35 13 19 1016.6 - 0.0
22/07:00pm 20.6 13.4 2.9 31 8.4 S 30 39 16 21 1016.0 - 0.0
22/06:30pm 21.3 15.9 8.2 43 6.9 S 26 37 14 20 1015.6 - 0.0
22/06:00pm 22.5 18.0 9.9 44 6.9 S 24 33 13 18 1015.2 1014.8 0.0
22/05:30pm 23.4 18.2 10.4 43 7.2 S 28 35 15 19 1014.8 - 0.0
22/05:00pm 24.2 19.2 10.8 43 7.5 SSW 28 37 15 20 1014.5 - 0.0
22/04:30pm 25.5 20.6 9.8 37 8.7 SSW 26 33 14 18 1014.4 - 0.0
22/04:00pm 25.5 21.9 9.8 37 8.7 SSW 19 30 10 16 1014.5 - 0.0
22/03:30pm 25.8 22.5 9.5 35 9.0 SSW 17 20 9 11 1014.5 - 0.0
22/03:00pm 25.7 21.8 9.4 35 9.0 SSW 20 28 11 15 1014.5 1014.1 0.0
22/02:30pm 25.5 21.8 9.6 36 8.8 SSW 19 32 10 17 1014.4 - 0.0
22/02:00pm 25.3 22.1 9.8 37 8.6 S 17 24 9 13 1014.4 - 0.0
22/01:30pm 25.2 22.0 8.6 35 9.0 SSW 15 20 8 11 1014.8 - 0.0
22/01:00pm 24.7 21.2 7.3 33 9.2 SW 15 22 8 12 1015.2 - 0.0
22/12:30pm 23.8 20.1 7.8 36 8.5 SW 17 26 9 14 1015.7 - 0.0
22/12:00pm 23.8 20.6 8.5 37 8.2 SW 15 22 8 12 1015.9 1015.5 0.0
22/11:30am 22.9 20.0 9.5 42 7.3 SSW 15 20 8 11 1016.1 - 0.0
22/11:00am 22.8 20.8 8.8 40 7.5 SW 9 17 5 9 1016.2 - 0.0
22/10:30am 22.1 20.6 9.1 43 7.0 SW 7 11 4 6 1016.4 - 0.0
22/10:00am 21.4 20.1 9.8 47 6.3 SSW 7 11 4 6 1016.5 - 0.0
22/09:30am 20.0 18.2 9.3 50 5.7 S 9 13 5 7 1016.6 - 0.0
22/09:00am 19.1 16.7 8.6 50 5.5 SSW 11 15 6 8 1016.5 1016.1 0.0
22/08:30am 18.6 15.3 4.8 40 6.7 WSW 11 15 6 8 1016.4 - 0.0
22/08:00am 18.4 15.9 4.7 40 6.6 WNW 7 9 4 5 1016.0 - 0.0
22/07:30am 17.3 14.6 5.4 45 5.8 WNW 9 9 5 5 1015.8 - 0.0
22/07:00am 16.9 14.3 4.2 43 6.0 W 7 9 4 5 1015.6 - 0.0
22/06:30am 16.3 13.8 4.5 45 5.6 WNW 7 9 4 5 1015.3 - 0.0
22/06:00am 16.2 13.7 4.9 47 5.4 W 7 9 4 5 1015.0 1014.6 0.0
22/05:30am 15.6 12.4 4.9 49 5.1 W 11 11 6 6 1014.9 - 0.0
22/05:00am 16.1 12.4 4.2 45 5.6 W 13 17 7 9 1014.9 - 0.0
22/04:30am 17.8 12.7 3.3 38 6.8 N 19 22 10 12 1014.1 - 0.0
22/04:00am 18.1 12.8 3.1 36 7.0 N 20 24 11 13 1013.8 - 0.0
22/03:30am 18.8 13.5 3.0 35 7.4 N 20 24 11 13 1013.6 - 0.0
22/03:00am 19.1 13.8 3.2 34 7.5 N 20 24 11 13 1013.7 1013.3 0.0
22/02:30am 19.1 14.1 3.5 35 7.4 N 19 22 10 12 1013.8 - 0.0
22/02:00am 19.7 14.5 3.6 34 7.7 N 20 26 11 14 1013.7 - 0.0
22/01:30am 20.3 15.1 3.6 33 8.0 N 20 26 11 14 1013.9 - 0.0
22/01:00am 20.9 15.3 3.7 32 8.3 N 22 28 12 15 1014.0 - 0.0
22/12:30am 21.1 15.2 4.0 32 8.3 N 24 30 13 16 1014.0 - 0.0
22/12:00am 21.4 15.5 3.9 31 8.5 N 24 32 13 17 1014.2 1013.8 0.0
 
Date/Time
CST
Temp
°C
App
Temp
°C
Dew
Point
Rel
Hum
%
Delta-T
°C
Wind Press
QNH
hPa
Press
MSL
hPa
Rain
since 9 am
mm
Dir
 
Spd
km/h
Gust
km/h
Spd
kts
Gust
kts
21/11:30pm 21.5 15.6 3.8 31 8.6 N 24 30 13 16 1014.3 - 0.0
21/11:00pm 20.7 15.5 3.4 32 8.3 N 20 26 11 14 1014.5 - 0.0
21/10:30pm 21.1 15.8 3.1 30 8.6 N 20 26 11 14 1014.6 - 0.0
21/10:00pm 20.9 15.7 3.4 31 8.4 N 20 24 11 13 1014.8 - 0.0
21/09:30pm 21.2 16.0 3.3 30 8.6 N 20 24 11 13 1014.8 - 0.0
21/09:00pm 21.7 16.6 3.2 29 8.9 N 19 24 10 13 1014.8 1014.4 0.0
21/08:30pm 22.7 17.5 2.7 27 9.6 N 19 22 10 12 1014.7 - 0.0
21/08:00pm 23.9 18.3 1.5 23 10.6 N 20 24 11 13 1014.5 - 0.0
21/07:30pm 24.2 18.6 1.4 22 10.8 N 20 24 11 13 1014.5 - 0.0
21/07:00pm 24.4 19.0 1.4 22 10.9 N 19 22 10 12 1014.4 - 0.0
21/06:30pm 25.2 20.0 0.4 19 11.6 N 17 20 9 11 1014.2 - 0.0
21/06:00pm 26.0 20.4 0.2 18 12.1 NNW 19 20 10 11 1014.0 1013.6 0.0
21/05:30pm 27.3 20.7 -0.5 16 13.0 NNW 24 32 13 17 1013.9 - 0.0
21/05:00pm 27.9 20.2 -0.3 16 13.3 NNW 30 41 16 22 1013.8 - 0.0
21/04:30pm 28.6 20.6 0.1 15 13.6 NNW 32 41 17 22 1013.8 - 0.0
21/04:00pm 29.0 22.5 0.2 15 13.8 N 24 33 13 18 1013.9 - 0.0
21/03:30pm 29.1 21.1 0.1 15 13.9 NNW 32 39 17 21 1013.9 - 0.0
21/03:00pm 28.8 21.5 0.2 15 13.7 N 28 43 15 23 1014.0 1013.6 0.0
21/02:30pm 30.1 21.4 -0.5 14 14.6 NW 35 41 19 22 1014.0 - 0.0
21/02:08pm 29.7 22.1 0.7 15 14.1 NNW 30 48 16 26 1014.1 - 0.0
21/02:00pm 29.4 21.3 -0.1 15 14.1 NNW 32 41 17 22 1014.2 - 0.0
21/01:34pm 29.6 21.6 0.4 15 14.1 NNW 32 52 17 28 1014.5 - 0.0
21/01:30pm 29.5 22.0 1.4 16 13.8 NNW 30 39 16 21 1014.6 - 0.0
21/01:00pm 29.1 21.0 0.9 16 13.7 N 33 44 18 24 1014.9 - 0.0
21/12:30pm 28.7 21.3 1.9 18 13.2 NNW 30 43 16 23 1015.5 - 0.0
21/12:00pm 28.3 20.1 2.5 19 12.8 N 35 46 19 25 1016.1 1015.7 0.0
21/11:30am 27.4 19.7 3.2 21 12.1 NNW 33 46 18 25 1016.4 - 0.0
21/11:00am 27.3 19.7 4.0 22 11.8 NNW 33 43 18 23 1016.8 - 0.0
21/10:30am 25.5 18.6 4.5 26 10.6 N 30 39 16 21 1017.0 - 0.0
21/10:00am 24.3 18.3 5.5 29 9.6 N 26 33 14 18 1017.3 - 0.0
21/09:30am 23.5 18.0 5.9 32 9.0 N 24 32 13 17 1017.5 - 0.0
21/09:00am 22.0 16.7 6.6 37 7.9 N 24 30 13 16 1017.7 1017.3 0.0
21/08:30am 19.7 14.5 7.4 45 6.3 NNE 24 28 13 15 1017.4 - 0.0
21/08:00am 18.3 13.4 7.0 47 5.7 NNE 22 30 12 16 1017.3 - 0.0
21/07:30am 17.6 13.2 7.6 52 5.1 NNE 20 24 11 13 1017.1 - 0.0
21/07:00am 16.8 12.6 7.5 54 4.7 NNE 19 20 10 11 1016.8 - 0.0
21/06:30am 16.8 13.0 7.5 54 4.7 NNE 17 20 9 11 1016.7 - 0.0
21/06:00am 16.9 13.1 7.4 53 4.8 NNE 17 20 9 11 1016.5 1016.1 0.0
21/05:30am 17.5 13.6 7.2 51 5.2 NNE 17 20 9 11 1016.3 - 0.0
21/05:00am 17.5 13.7 7.4 51 5.1 NNE 17 20 9 11 1016.2 - 0.0
21/04:30am 17.9 13.8 7.7 51 5.2 NNE 19 20 10 11 1016.1 - 0.0
21/04:00am 17.4 13.8 8.3 55 4.7 NNE 17 20 9 11 1016.2 - 0.0
21/03:30am 17.5 14.0 8.9 57 4.5 NNE 17 20 9 11 1016.1 - 0.0
21/03:00am 17.3 13.8 8.8 57 4.4 NNE 17 20 9 11 1016.2 1015.8 0.0
21/02:30am 17.7 14.2 8.7 55 4.7 NE 17 20 9 11 1016.2 - 0.0
21/02:00am 17.8 14.6 8.5 54 4.8 NE 15 17 8 9 1016.4 - 0.0
21/01:30am 18.4 14.7 8.1 51 5.3 NE 17 20 9 11 1016.4 - 0.0
21/01:00am 19.6 15.4 8.1 47 6.0 ENE 20 24 11 13 1016.3 - 0.0
21/12:30am 19.7 15.4 7.9 46 6.1 NE 20 24 11 13 1016.5 - 0.0
21/12:00am 19.1 14.9 7.6 47 5.9 ENE 19 20 10 11 1016.5 1016.1 0.0
 
Date/Time
CST
Temp
°C
App
Temp
°C
Dew
Point
Rel
Hum
%
Delta-T
°C
Wind Press
QNH
hPa
Press
MSL
hPa
Rain
since 9 am
mm
Dir
 
Spd
km/h
Gust
km/h
Spd
kts
Gust
kts
20/11:30pm 19.3 15.0 7.1 45 6.2 ENE 19 20 10 11 1016.6 - 0.0
20/11:00pm 19.1 15.3 7.6 47 5.9 E 17 17 9 9 1016.9 - 0.0
20/10:30pm 19.7 16.2 7.4 45 6.3 E 15 17 8 9 1017.0 - 0.0
20/10:00pm 19.6 16.3 6.5 42 6.6 E 13 15 7 8 1017.1 - 0.0
20/09:30pm 20.2 16.9 6.3 40 7.0 E 13 15 7 8 1017.0 - 0.0
20/09:00pm 21.2 18.2 5.9 37 7.7 SE 11 15 6 8 1017.0 1016.6 0.0
20/08:30pm 21.5 18.8 5.8 36 7.9 ENE 9 13 5 7 1016.8 - 0.0
20/08:00pm 21.8 18.3 5.5 34 8.2 NNE 13 15 7 8 1016.6 - 0.0
20/07:30pm 23.8 20.5 4.6 28 9.6 NNE 11 13 6 7 1016.4 - 0.0
20/07:00pm 22.8 18.9 5.3 32 8.8 NE 15 15 8 8 1016.3 - 0.0
20/06:30pm 23.7 20.2 5.4 30 9.3 NNE 13 15 7 8 1016.1 - 0.0
20/06:00pm 25.7 22.8 4.9 26 10.6 NNE 9 11 5 6 1015.8 1015.4 0.0
20/05:30pm 27.8 24.3 3.6 21 12.2 N 11 13 6 7 1015.6 - 0.0

Other Formats:

Comma delimited format used in spreadsheet applications
http://www.bom.gov.au/fwo/IDS60801/IDS60801.94659.axf

JavaScript Object Notation format (JSON) in row-major order
http://www.bom.gov.au/fwo/IDS60801/IDS60801.94659.json